sensor_id;sensor_type;location;lat;lon;timestamp;pressure;altitude;pressure_sealevel;temperature;humidity
5500;BME280;2772;42.700;23.304;2024-01-27T00:02:06;95616.00;;;4.84;100.00
5500;BME280;2772;42.700;23.304;2024-01-27T00:04:35;95602.38;;;5.02;100.00
5500;BME280;2772;42.700;23.304;2024-01-27T00:07:04;95610.81;;;5.04;100.00
5500;BME280;2772;42.700;23.304;2024-01-27T00:09:31;95618.16;;;4.97;100.00
5500;BME280;2772;42.700;23.304;2024-01-27T00:11:58;95616.88;;;5.05;100.00
5500;BME280;2772;42.700;23.304;2024-01-27T00:14:25;95612.91;;;5.02;100.00
5500;BME280;2772;42.700;23.304;2024-01-27T00:16:54;95619.81;;;5.13;100.00
5500;BME280;2772;42.700;23.304;2024-01-27T00:19:21;95596.88;;;5.19;100.00
5500;BME280;2772;42.700;23.304;2024-01-27T00:21:52;95606.38;;;5.25;100.00
5500;BME280;2772;42.700;23.304;2024-01-27T00:24:18;95606.13;;;5.26;100.00
5500;BME280;2772;42.700;23.304;2024-01-27T00:26:45;95605.34;;;5.26;100.00
5500;BME280;2772;42.700;23.304;2024-01-27T00:29:14;95619.56;;;5.25;100.00
5500;BME280;2772;42.700;23.304;2024-01-27T00:31:42;95603.25;;;5.38;100.00
5500;BME280;2772;42.700;23.304;2024-01-27T00:34:08;95608.25;;;5.24;100.00
5500;BME280;2772;42.700;23.304;2024-01-27T00:36:35;95604.28;;;5.27;100.00
5500;BME280;2772;42.700;23.304;2024-01-27T00:39:04;95597.19;;;5.32;100.00
5500;BME280;2772;42.700;23.304;2024-01-27T00:41:34;95604.31;;;5.37;100.00
5500;BME280;2772;42.700;23.304;2024-01-27T00:44:01;95610.38;;;5.42;100.00
5500;BME280;2772;42.700;23.304;2024-01-27T00:46:35;95597.44;;;5.41;100.00
5500;BME280;2772;42.700;23.304;2024-01-27T00:49:14;95618.03;;;5.44;100.00
5500;BME280;2772;42.700;23.304;2024-01-27T00:51:42;95596.91;;;5.44;100.00
5500;BME280;2772;42.700;23.304;2024-01-27T00:54:13;95598.50;;;5.35;100.00
5500;BME280;2772;42.700;23.304;2024-01-27T00:56:40;95605.09;;;5.32;100.00
5500;BME280;2772;42.700;23.304;2024-01-27T00:59:06;95595.88;;;5.40;100.00
5500;BME280;2772;42.700;23.304;2024-01-27T01:01:33;95594.25;;;5.39;100.00
5500;BME280;2772;42.700;23.304;2024-01-27T01:04:00;95593.22;;;5.35;100.00
5500;BME280;2772;42.700;23.304;2024-01-27T01:06:27;95590.88;;;5.43;100.00
5500;BME280;2772;42.700;23.304;2024-01-27T01:08:53;95588.97;;;5.39;100.00
5500;BME280;2772;42.700;23.304;2024-01-27T01:11:22;95600.31;;;5.19;100.00
5500;BME280;2772;42.700;23.304;2024-01-27T01:13:48;95603.47;;;5.16;100.00
5500;BME280;2772;42.700;23.304;2024-01-27T01:16:15;95599.22;;;5.10;100.00
5500;BME280;2772;42.700;23.304;2024-01-27T01:18:42;95601.31;;;5.03;100.00
5500;BME280;2772;42.700;23.304;2024-01-27T01:21:09;95601.03;;;5.05;100.00
5500;BME280;2772;42.700;23.304;2024-01-27T01:23:36;95601.81;;;5.00;100.00
5500;BME280;2772;42.700;23.304;2024-01-27T01:26:02;95590.75;;;5.03;100.00
5500;BME280;2772;42.700;23.304;2024-01-27T01:28:31;95601.84;;;5.05;100.00
5500;BME280;2772;42.700;23.304;2024-01-27T01:30:58;95593.16;;;5.10;100.00
5500;BME280;2772;42.700;23.304;2024-01-27T01:33:25;95594.47;;;5.12;100.00
5500;BME280;2772;42.700;23.304;2024-01-27T01:35:55;95588.38;;;5.07;100.00
5500;BME280;2772;42.700;23.304;2024-01-27T01:38:22;95592.59;;;5.08;100.00
5500;BME280;2772;42.700;23.304;2024-01-27T01:40:49;95585.50;;;5.08;100.00
5500;BME280;2772;42.700;23.304;2024-01-27T01:43:16;95579.66;;;5.06;100.00
5500;BME280;2772;42.700;23.304;2024-01-27T01:45:44;95569.13;;;5.06;100.00
5500;BME280;2772;42.700;23.304;2024-01-27T01:48:11;95559.63;;;5.05;100.00
5500;BME280;2772;42.700;23.304;2024-01-27T01:50:38;95570.66;;;4.92;100.00
5500;BME280;2772;42.700;23.304;2024-01-27T01:53:05;95575.69;;;4.99;100.00
5500;BME280;2772;42.700;23.304;2024-01-27T01:55:33;95573.63;;;5.06;100.00
5500;BME280;2772;42.700;23.304;2024-01-27T01:58:00;95562.03;;;5.17;100.00
5500;BME280;2772;42.700;23.304;2024-01-27T02:00:28;95561.78;;;5.18;100.00
5500;BME280;2772;42.700;23.304;2024-01-27T02:02:57;95563.09;;;5.21;100.00
5500;BME280;2772;42.700;23.304;2024-01-27T02:05:23;95566.25;;;5.33;100.00
5500;BME280;2772;42.700;23.304;2024-01-27T02:07:50;95562.84;;;5.32;100.00
5500;BME280;2772;42.700;23.304;2024-01-27T02:10:18;95556.25;;;5.40;100.00
5500;BME280;2772;42.700;23.304;2024-01-27T02:12:46;95549.38;;;5.44;100.00
5500;BME280;2772;42.700;23.304;2024-01-27T02:15:13;95542.53;;;5.43;100.00
5500;BME280;2772;42.700;23.304;2024-01-27T02:17:40;95536.97;;;5.44;100.00
5500;BME280;2772;42.700;23.304;2024-01-27T02:20:09;95540.94;;;5.47;100.00
5500;BME280;2772;42.700;23.304;2024-01-27T02:22:36;95554.69;;;5.54;99.92
5500;BME280;2772;42.700;23.304;2024-01-27T02:25:05;95552.06;;;5.59;98.23
5500;BME280;2772;42.700;23.304;2024-01-27T02:27:32;95547.78;;;5.53;97.29
5500;BME280;2772;42.700;23.304;2024-01-27T02:29:58;95546.75;;;5.64;97.14
5500;BME280;2772;42.700;23.304;2024-01-27T02:32:25;95541.75;;;5.67;96.55
5500;BME280;2772;42.700;23.304;2024-01-27T02:34:54;95537.75;;;5.75;95.71
5500;BME280;2772;42.700;23.304;2024-01-27T02:37:21;95548.34;;;5.80;93.35
5500;BME280;2772;42.700;23.304;2024-01-27T02:39:48;95544.38;;;5.72;92.65
5500;BME280;2772;42.700;23.304;2024-01-27T02:42:16;95550.19;;;5.74;91.89
5500;BME280;2772;42.700;23.304;2024-01-27T02:44:43;95541.75;;;5.77;91.98
5500;BME280;2772;42.700;23.304;2024-01-27T02:47:09;95544.13;;;5.79;91.28
5500;BME280;2772;42.700;23.304;2024-01-27T02:49:36;95546.78;;;5.89;91.57
5500;BME280;2772;42.700;23.304;2024-01-27T02:52:03;95541.47;;;5.79;93.33
5500;BME280;2772;42.700;23.304;2024-01-27T02:54:30;95535.97;;;5.85;94.93
5500;BME280;2772;42.700;23.304;2024-01-27T02:56:57;95528.28;;;5.79;95.25
5500;BME280;2772;42.700;23.304;2024-01-27T02:59:25;95541.47;;;5.74;96.16
5500;BME280;2772;42.700;23.304;2024-01-27T03:01:52;95543.84;;;5.70;96.55
5500;BME280;2772;42.700;23.304;2024-01-27T03:04:19;95547.81;;;5.63;94.77
5500;BME280;2772;42.700;23.304;2024-01-27T03:06:46;95544.13;;;5.69;93.44
5500;BME280;2772;42.700;23.304;2024-01-27T03:09:13;95551.25;;;5.78;92.76
5500;BME280;2772;42.700;23.304;2024-01-27T03:11:39;95557.59;;;5.72;90.06
5500;BME280;2772;42.700;23.304;2024-01-27T03:14:06;95552.59;;;5.76;88.96
5500;BME280;2772;42.700;23.304;2024-01-27T03:16:34;95553.88;;;5.73;88.43
5500;BME280;2772;42.700;23.304;2024-01-27T03:19:03;95552.84;;;5.69;89.47
5500;BME280;2772;42.700;23.304;2024-01-27T03:21:30;95553.88;;;5.73;91.43
5500;BME280;2772;42.700;23.304;2024-01-27T03:23:57;95556.53;;;5.78;93.62
5500;BME280;2772;42.700;23.304;2024-01-27T03:26:24;95556.53;;;5.78;95.42
5500;BME280;2772;42.700;23.304;2024-01-27T03:28:51;95554.69;;;5.74;100.00
5500;BME280;2772;42.700;23.304;2024-01-27T03:31:23;95547.03;;;5.77;100.00
5500;BME280;2772;42.700;23.304;2024-01-27T03:33:54;95549.91;;;5.61;100.00
5500;BME280;2772;42.700;23.304;2024-01-27T03:36:22;95535.66;;;5.62;100.00
5500;BME280;2772;42.700;23.304;2024-01-27T03:38:49;95533.03;;;5.62;100.00
5500;BME280;2772;42.700;23.304;2024-01-27T03:41:15;95529.59;;;5.61;100.00
5500;BME280;2772;42.700;23.304;2024-01-27T03:43:42;95519.28;;;5.65;100.00
5500;BME280;2772;42.700;23.304;2024-01-27T03:46:09;95521.41;;;5.68;100.00
5500;BME280;2772;42.700;23.304;2024-01-27T03:48:35;95525.09;;;5.62;100.00
5500;BME280;2772;42.700;23.304;2024-01-27T03:51:04;95508.72;;;5.60;100.00
5500;BME280;2772;42.700;23.304;2024-01-27T03:53:34;95499.72;;;5.61;100.00
5500;BME280;2772;42.700;23.304;2024-01-27T03:56:01;95498.69;;;5.62;100.00
5500;BME280;2772;42.700;23.304;2024-01-27T03:58:29;95497.34;;;5.54;100.00
5500;BME280;2772;42.700;23.304;2024-01-27T04:00:56;95503.16;;;5.51;100.00
5500;BME280;2772;42.700;23.304;2024-01-27T04:03:23;95504.50;;;5.49;100.00
5500;BME280;2772;42.700;23.304;2024-01-27T04:05:50;95502.38;;;5.51;100.00
5500;BME280;2772;42.700;23.304;2024-01-27T04:08:25;95497.13;;;5.56;100.00
5500;BME280;2772;42.700;23.304;2024-01-27T04:10:53;95498.69;;;5.57;100.00
5500;BME280;2772;42.700;23.304;2024-01-27T04:13:19;95493.94;;;5.54;100.00
5500;BME280;2772;42.700;23.304;2024-01-27T04:15:46;95488.41;;;5.60;100.00
5500;BME280;2772;42.700;23.304;2024-01-27T04:18:13;95489.69;;;5.68;100.00
5500;BME280;2772;42.700;23.304;2024-01-27T04:20:39;95478.59;;;5.61;100.00
5500;BME280;2772;42.700;23.304;2024-01-27T04:23:06;95482.81;;;5.67;100.00
5500;BME280;2772;42.700;23.304;2024-01-27T04:25:34;95491.31;;;5.59;100.00
5500;BME280;2772;42.700;23.304;2024-01-27T04:28:01;95491.53;;;5.62;100.00
5500;BME280;2772;42.700;23.304;2024-01-27T04:30:30;95490.75;;;5.67;100.00
5500;BME280;2772;42.700;23.304;2024-01-27T04:33:00;95494.97;;;5.73;100.00
5500;BME280;2772;42.700;23.304;2024-01-27T04:35:28;95494.97;;;5.73;100.00
5500;BME280;2772;42.700;23.304;2024-01-27T04:37:55;95493.91;;;5.74;100.00
5500;BME280;2772;42.700;23.304;2024-01-27T04:40:21;95501.31;;;5.72;100.00
5500;BME280;2772;42.700;23.304;2024-01-27T04:42:49;95486.53;;;5.71;100.00
5500;BME280;2772;42.700;23.304;2024-01-27T04:45:16;95490.22;;;5.65;100.00
5500;BME280;2772;42.700;23.304;2024-01-27T04:47:43;95490.75;;;5.72;100.00
5500;BME280;2772;42.700;23.304;2024-01-27T04:50:10;95480.72;;;5.74;100.00
5500;BME280;2772;42.700;23.304;2024-01-27T04:52:37;95488.38;;;5.70;100.00
5500;BME280;2772;42.700;23.304;2024-01-27T04:55:07;95486.00;;;5.74;100.00
5500;BME280;2772;42.700;23.304;2024-01-27T04:57:33;95492.06;;;5.69;100.00
5500;BME280;2772;42.700;23.304;2024-01-27T05:00:02;95488.66;;;5.59;100.00
5500;BME280;2772;42.700;23.304;2024-01-27T05:02:32;95492.34;;;5.58;100.00
5500;BME280;2772;42.700;23.304;2024-01-27T05:04:59;95491.28;;;5.64;100.00
5500;BME280;2772;42.700;23.304;2024-01-27T05:07:26;95487.31;;;5.61;100.00
5500;BME280;2772;42.700;23.304;2024-01-27T05:09:53;95493.38;;;5.67;100.00
5500;BME280;2772;42.700;23.304;2024-01-27T05:12:19;95489.97;;;5.66;100.00
5500;BME280;2772;42.700;23.304;2024-01-27T05:14:46;95494.44;;;5.71;100.00
5500;BME280;2772;42.700;23.304;2024-01-27T05:17:14;95494.19;;;5.67;100.00
5500;BME280;2772;42.700;23.304;2024-01-27T05:19:44;95500.00;;;5.69;100.00
5500;BME280;2772;42.700;23.304;2024-01-27T05:22:11;95487.84;;;5.63;100.00
5500;BME280;2772;42.700;23.304;2024-01-27T05:24:37;95490.22;;;5.75;100.00
5500;BME280;2772;42.700;23.304;2024-01-27T05:27:04;95486.03;;;5.84;100.00
5500;BME280;2772;42.700;23.304;2024-01-27T05:29:31;95486.78;;;5.84;100.00
5500;BME280;2772;42.700;23.304;2024-01-27T05:31:58;95478.59;;;5.91;100.00
5500;BME280;2772;42.700;23.304;2024-01-27T05:34:26;95478.59;;;5.96;100.00
5500;BME280;2772;42.700;23.304;2024-01-27T05:36:53;95470.88;;;6.04;100.00
5500;BME280;2772;42.700;23.304;2024-01-27T05:39:19;95493.09;;;5.98;100.00
5500;BME280;2772;42.700;23.304;2024-01-27T05:41:46;95489.69;;;5.98;100.00
5500;BME280;2772;42.700;23.304;2024-01-27T05:44:13;95487.06;;;5.88;100.00
5500;BME280;2772;42.700;23.304;2024-01-27T05:46:40;95493.16;;;5.88;100.00
5500;BME280;2772;42.700;23.304;2024-01-27T05:49:07;95492.88;;;5.85;100.00
5500;BME280;2772;42.700;23.304;2024-01-27T05:51:35;95488.09;;;5.72;100.00
5500;BME280;2772;42.700;23.304;2024-01-27T05:54:02;95508.19;;;5.68;100.00
5500;BME280;2772;42.700;23.304;2024-01-27T05:56:31;95502.41;;;5.56;100.00
5500;BME280;2772;42.700;23.304;2024-01-27T05:59:01;95495.50;;;5.55;100.00
5500;BME280;2772;42.700;23.304;2024-01-27T06:01:28;95501.31;;;5.52;100.00
5500;BME280;2772;42.700;23.304;2024-01-27T06:03:55;95490.50;;;5.53;100.00
5500;BME280;2772;42.700;23.304;2024-01-27T06:06:21;95494.97;;;5.53;100.00
5500;BME280;2772;42.700;23.304;2024-01-27T06:09:05;95505.03;;;5.46;100.00
5500;BME280;2772;42.700;23.304;2024-01-27T06:11:37;95500.00;;;5.29;100.00
5500;BME280;2772;42.700;23.304;2024-01-27T06:14:04;95491.53;;;5.37;100.00
5500;BME280;2772;42.700;23.304;2024-01-27T06:16:31;95497.91;;;5.41;100.00
5500;BME280;2772;42.700;23.304;2024-01-27T06:18:58;95512.69;;;5.42;100.00
5500;BME280;2772;42.700;23.304;2024-01-27T06:21:25;95509.00;;;5.43;100.00
5500;BME280;2772;42.700;23.304;2024-01-27T06:23:54;95500.53;;;5.51;100.00
5500;BME280;2772;42.700;23.304;2024-01-27T06:26:21;95512.44;;;5.54;100.00
5500;BME280;2772;42.700;23.304;2024-01-27T06:28:48;95519.28;;;5.55;100.00
5500;BME280;2772;42.700;23.304;2024-01-27T06:31:15;95525.09;;;5.62;100.00
5500;BME280;2772;42.700;23.304;2024-01-27T06:33:42;95530.13;;;5.58;100.00
5500;BME280;2772;42.700;23.304;2024-01-27T06:36:09;95527.75;;;5.57;100.00
5500;BME280;2772;42.700;23.304;2024-01-27T06:38:37;95548.59;;;5.53;100.00
5500;BME280;2772;42.700;23.304;2024-01-27T06:41:05;95543.84;;;5.50;100.00
5500;BME280;2772;42.700;23.304;2024-01-27T06:43:34;95534.88;;;5.61;100.00
5500;BME280;2772;42.700;23.304;2024-01-27T06:46:01;95547.28;;;5.61;100.00
5500;BME280;2772;42.700;23.304;2024-01-27T06:48:28;95552.59;;;5.56;100.00
5500;BME280;2772;42.700;23.304;2024-01-27T06:50:54;95557.56;;;5.62;100.00
5500;BME280;2772;42.700;23.304;2024-01-27T06:53:21;95562.59;;;5.69;100.00
5500;BME280;2772;42.700;23.304;2024-01-27T06:55:49;95559.97;;;5.64;100.00
5500;BME280;2772;42.700;23.304;2024-01-27T06:58:17;95564.44;;;5.68;100.00
5500;BME280;2772;42.700;23.304;2024-01-27T07:00:44;95546.22;;;5.72;100.00
5500;BME280;2772;42.700;23.304;2024-01-27T07:03:11;95546.47;;;5.65;100.00
5500;BME280;2772;42.700;23.304;2024-01-27T07:05:38;95543.06;;;5.70;100.00
5500;BME280;2772;42.700;23.304;2024-01-27T07:08:06;95536.97;;;5.79;100.00
5500;BME280;2772;42.700;23.304;2024-01-27T07:10:33;95542.53;;;5.78;100.00
5500;BME280;2772;42.700;23.304;2024-01-27T07:13:00;95540.16;;;5.81;100.00
5500;BME280;2772;42.700;23.304;2024-01-27T07:15:28;95538.88;;;5.84;100.00
5500;BME280;2772;42.700;23.304;2024-01-27T07:17:55;95551.56;;;5.82;100.00
5500;BME280;2772;42.700;23.304;2024-01-27T07:20:22;95549.19;;;5.85;100.00
5500;BME280;2772;42.700;23.304;2024-01-27T07:22:49;95544.91;;;5.79;100.00
5500;BME280;2772;42.700;23.304;2024-01-27T07:25:16;95570.81;;;5.82;100.00
5500;BME280;2772;42.700;23.304;2024-01-27T07:27:43;95566.34;;;5.98;100.00
5500;BME280;2772;42.700;23.304;2024-01-27T07:30:10;95589.84;;;6.19;100.00
5500;BME280;2772;42.700;23.304;2024-01-27T07:32:39;95600.69;;;6.08;100.00
5500;BME280;2772;42.700;23.304;2024-01-27T07:35:06;95602.75;;;6.41;100.00
5500;BME280;2772;42.700;23.304;2024-01-27T07:37:33;95633.72;;;6.30;100.00
5500;BME280;2772;42.700;23.304;2024-01-27T07:40:00;95655.66;;;6.31;100.00
5500;BME280;2772;42.700;23.304;2024-01-27T07:42:27;95650.91;;;6.23;100.00
5500;BME280;2772;42.700;23.304;2024-01-27T07:44:54;95671.00;;;6.14;100.00
5500;BME280;2772;42.700;23.304;2024-01-27T07:47:20;95673.66;;;5.99;100.00
5500;BME280;2772;42.700;23.304;2024-01-27T07:49:51;95681.03;;;5.92;100.00
5500;BME280;2772;42.700;23.304;2024-01-27T07:52:17;95668.81;;;5.81;100.00
5500;BME280;2772;42.700;23.304;2024-01-27T07:54:44;95671.72;;;5.69;100.00
5500;BME280;2772;42.700;23.304;2024-01-27T07:57:13;95675.94;;;5.65;100.00
5500;BME280;2772;42.700;23.304;2024-01-27T07:59:40;95681.22;;;5.65;100.00
5500;BME280;2772;42.700;23.304;2024-01-27T08:02:07;95687.81;;;5.58;100.00
5500;BME280;2772;42.700;23.304;2024-01-27T08:04:34;95694.94;;;5.62;100.00
5500;BME280;2772;42.700;23.304;2024-01-27T08:07:02;95712.16;;;5.70;100.00
5500;BME280;2772;42.700;23.304;2024-01-27T08:09:43;95690.50;;;5.78;100.00
5500;BME280;2772;42.700;23.304;2024-01-27T08:12:10;95720.88;;;5.75;100.00
5500;BME280;2772;42.700;23.304;2024-01-27T08:14:37;95699.22;;;5.78;100.00
5500;BME280;2772;42.700;23.304;2024-01-27T08:17:05;95692.34;;;5.77;100.00
5500;BME280;2772;42.700;23.304;2024-01-27T08:19:32;95677.59;;;5.86;100.00
5500;BME280;2772;42.700;23.304;2024-01-27T08:22:04;95701.94;;;5.88;100.00
5500;BME280;2772;42.700;23.304;2024-01-27T08:24:31;95700.06;;;5.89;100.00
5500;BME280;2772;42.700;23.304;2024-01-27T08:27:06;95686.34;;;5.87;100.00
5500;BME280;2772;42.700;23.304;2024-01-27T08:29:34;95692.94;;;5.94;100.00
5500;BME280;2772;42.700;23.304;2024-01-27T08:32:01;95695.59;;;5.99;100.00
5500;BME280;2772;42.700;23.304;2024-01-27T08:34:28;95694.81;;;6.04;100.00
5500;BME280;2772;42.700;23.304;2024-01-27T08:37:02;95713.81;;;6.06;100.00
5500;BME280;2772;42.700;23.304;2024-01-27T08:39:30;95729.69;;;6.11;100.00
5500;BME280;2772;42.700;23.304;2024-01-27T08:41:56;95710.94;;;6.17;100.00
5500;BME280;2772;42.700;23.304;2024-01-27T08:44:22;95669.91;;;6.65;100.00
5500;BME280;2772;42.700;23.304;2024-01-27T08:46:49;95702.19;;;6.62;100.00
5500;BME280;2772;42.700;23.304;2024-01-27T08:49:16;95707.50;;;6.52;100.00
5500;BME280;2772;42.700;23.304;2024-01-27T08:51:43;95713.34;;;6.54;100.00
5500;BME280;2772;42.700;23.304;2024-01-27T08:54:09;95701.16;;;6.48;100.00
5500;BME280;2772;42.700;23.304;2024-01-27T08:56:40;95701.16;;;6.53;100.00
5500;BME280;2772;42.700;23.304;2024-01-27T08:59:07;95693.75;;;6.50;100.00
5500;BME280;2772;42.700;23.304;2024-01-27T09:01:34;95708.81;;;6.60;100.00
5500;BME280;2772;42.700;23.304;2024-01-27T09:04:01;95707.75;;;6.71;100.00
5500;BME280;2772;42.700;23.304;2024-01-27T09:06:27;95700.84;;;6.75;100.00
5500;BME280;2772;42.700;23.304;2024-01-27T09:08:54;95705.06;;;6.86;100.00
5500;BME280;2772;42.700;23.304;2024-01-27T09:11:21;95724.94;;;6.88;100.00
5500;BME280;2772;42.700;23.304;2024-01-27T09:13:50;95715.66;;;6.91;100.00
5500;BME280;2772;42.700;23.304;2024-01-27T09:16:17;95717.00;;;6.83;100.00
5500;BME280;2772;42.700;23.304;2024-01-27T09:18:44;95707.44;;;6.92;100.00
5500;BME280;2772;42.700;23.304;2024-01-27T09:21:11;95718.34;;;6.76;100.00
5500;BME280;2772;42.700;23.304;2024-01-27T09:23:40;95713.03;;;6.76;100.00
5500;BME280;2772;42.700;23.304;2024-01-27T09:26:07;95697.94;;;6.91;100.00
5500;BME280;2772;42.700;23.304;2024-01-27T09:28:33;95690.28;;;6.80;100.00
5500;BME280;2772;42.700;23.304;2024-01-27T09:31:02;95702.16;;;6.92;100.00
5500;BME280;2772;42.700;23.304;2024-01-27T09:33:29;95693.41;;;7.02;100.00
5500;BME280;2772;42.700;23.304;2024-01-27T09:35:56;95703.19;;;7.01;100.00
5500;BME280;2772;42.700;23.304;2024-01-27T09:38:22;95696.38;;;6.75;100.00
5500;BME280;2772;42.700;23.304;2024-01-27T09:40:49;95704.56;;;6.74;100.00
5500;BME280;2772;42.700;23.304;2024-01-27T09:43:18;95695.31;;;6.71;100.00
5500;BME280;2772;42.700;23.304;2024-01-27T09:45:46;95699.00;;;6.65;100.00
5500;BME280;2772;42.700;23.304;2024-01-27T09:48:14;95705.91;;;6.61;100.00
5500;BME280;2772;42.700;23.304;2024-01-27T09:50:41;95695.31;;;6.61;100.00
5500;BME280;2772;42.700;23.304;2024-01-27T09:53:08;95707.50;;;6.52;100.00
5500;BME280;2772;42.700;23.304;2024-01-27T09:55:35;95715.97;;;6.49;100.00
5500;BME280;2772;42.700;23.304;2024-01-27T09:58:03;95722.31;;;6.38;100.00
5500;BME280;2772;42.700;23.304;2024-01-27T10:00:31;95703.28;;;6.31;100.00
5500;BME280;2772;42.700;23.304;2024-01-27T10:02:58;95708.56;;;6.41;100.00
5500;BME280;2772;42.700;23.304;2024-01-27T10:05:27;95714.66;;;6.26;100.00
5500;BME280;2772;42.700;23.304;2024-01-27T10:07:57;95720.72;;;6.22;100.00
5500;BME280;2772;42.700;23.304;2024-01-27T10:10:24;95735.53;;;6.33;100.00
5500;BME280;2772;42.700;23.304;2024-01-27T10:12:52;95743.19;;;6.29;100.00
5500;BME280;2772;42.700;23.304;2024-01-27T10:15:21;95732.38;;;6.21;100.00
5500;BME280;2772;42.700;23.304;2024-01-27T10:17:49;95749.81;;;6.22;100.00
5500;BME280;2772;42.700;23.304;2024-01-27T10:20:16;95732.34;;;6.01;100.00
5500;BME280;2772;42.700;23.304;2024-01-27T10:22:45;95741.28;;;5.95;100.00
5500;BME280;2772;42.700;23.304;2024-01-27T10:25:12;95742.09;;;5.90;100.00
5500;BME280;2772;42.700;23.304;2024-01-27T10:27:39;95749.75;;;5.92;100.00
5500;BME280;2772;42.700;23.304;2024-01-27T10:30:15;95740.25;;;5.91;100.00
5500;BME280;2772;42.700;23.304;2024-01-27T10:32:42;95746.56;;;5.85;100.00
5500;BME280;2772;42.700;23.304;2024-01-27T10:35:09;95732.25;;;5.81;100.00
5500;BME280;2772;42.700;23.304;2024-01-27T10:37:36;95731.97;;;5.72;100.00
5500;BME280;2772;42.700;23.304;2024-01-27T10:40:06;95732.78;;;5.73;100.00
5500;BME280;2772;42.700;23.304;2024-01-27T10:42:34;95732.25;;;5.71;100.00
5500;BME280;2772;42.700;23.304;2024-01-27T10:45:01;95729.34;;;5.77;100.00
5500;BME280;2772;42.700;23.304;2024-01-27T10:47:30;95733.28;;;5.75;100.00
5500;BME280;2772;42.700;23.304;2024-01-27T10:50:00;95741.28;;;5.85;100.00
5500;BME280;2772;42.700;23.304;2024-01-27T10:52:29;95741.31;;;5.90;100.00
5500;BME280;2772;42.700;23.304;2024-01-27T10:54:59;95742.63;;;5.92;100.00
5500;BME280;2772;42.700;23.304;2024-01-27T10:57:29;95736.56;;;5.97;100.00
5500;BME280;2772;42.700;23.304;2024-01-27T10:59:56;95751.88;;;5.95;100.00
5500;BME280;2772;42.700;23.304;2024-01-27T11:02:24;95768.53;;;5.85;100.00
5500;BME280;2772;42.700;23.304;2024-01-27T11:04:51;95762.97;;;5.82;100.00
5500;BME280;2772;42.700;23.304;2024-01-27T11:07:20;95774.06;;;5.84;100.00
5500;BME280;2772;42.700;23.304;2024-01-27T11:09:49;95762.72;;;5.93;100.00
5500;BME280;2772;42.700;23.304;2024-01-27T11:12:18;95772.69;;;5.81;100.00
5500;BME280;2772;42.700;23.304;2024-01-27T11:14:47;95771.94;;;5.86;100.00
5500;BME280;2772;42.700;23.304;2024-01-27T11:17:14;95771.13;;;5.80;100.00
5500;BME280;2772;42.700;23.304;2024-01-27T11:19:41;95771.88;;;5.71;100.00
5500;BME280;2772;42.700;23.304;2024-01-27T11:22:23;95753.91;;;5.78;100.00
5500;BME280;2772;42.700;23.304;2024-01-27T11:24:50;95751.06;;;5.84;100.00
5500;BME280;2772;42.700;23.304;2024-01-27T11:27:17;95738.91;;;5.83;100.00
5500;BME280;2772;42.700;23.304;2024-01-27T11:29:48;95755.56;;;5.89;100.00
5500;BME280;2772;42.700;23.304;2024-01-27T11:32:15;95757.41;;;5.83;100.00
5500;BME280;2772;42.700;23.304;2024-01-27T11:34:43;95755.03;;;5.82;100.00
5500;BME280;2772;42.700;23.304;2024-01-27T11:37:11;95743.09;;;5.74;100.00
5500;BME280;2772;42.700;23.304;2024-01-27T11:39:38;95760.22;;;5.67;100.00
5500;BME280;2772;42.700;23.304;2024-01-27T11:42:05;95743.53;;;5.56;100.00
5500;BME280;2772;42.700;23.304;2024-01-27T11:44:34;95753.34;;;5.66;100.00
5500;BME280;2772;42.700;23.304;2024-01-27T11:47:03;95760.81;;;5.79;100.00
5500;BME280;2772;42.700;23.304;2024-01-27T11:49:30;95760.25;;;5.77;100.00
5500;BME280;2772;42.700;23.304;2024-01-27T11:51:57;95760.22;;;5.67;100.00
5500;BME280;2772;42.700;23.304;2024-01-27T11:54:24;95781.94;;;5.79;100.00
5500;BME280;2772;42.700;23.304;2024-01-27T11:56:51;95800.66;;;5.67;100.00
5500;BME280;2772;42.700;23.304;2024-01-27T11:59:17;95780.78;;;5.55;100.00
5500;BME280;2772;42.700;23.304;2024-01-27T12:01:44;95805.66;;;5.59;100.00
5500;BME280;2772;42.700;23.304;2024-01-27T12:04:13;95805.13;;;5.67;100.00
5500;BME280;2772;42.700;23.304;2024-01-27T12:06:40;95841.63;;;5.75;100.00
5500;BME280;2772;42.700;23.304;2024-01-27T12:09:07;95813.09;;;5.77;100.00
5500;BME280;2772;42.700;23.304;2024-01-27T12:11:38;95813.88;;;5.72;100.00
5500;BME280;2772;42.700;23.304;2024-01-27T12:14:05;95817.34;;;5.78;100.00
5500;BME280;2772;42.700;23.304;2024-01-27T12:16:32;95812.66;;;5.85;100.00
5500;BME280;2772;42.700;23.304;2024-01-27T12:18:59;95818.50;;;5.97;100.00
5500;BME280;2772;42.700;23.304;2024-01-27T12:21:27;95817.19;;;5.94;100.00
5500;BME280;2772;42.700;23.304;2024-01-27T12:23:55;95832.78;;;6.06;100.00
5500;BME280;2772;42.700;23.304;2024-01-27T12:26:23;95822.53;;;6.29;100.00
5500;BME280;2772;42.700;23.304;2024-01-27T12:28:50;95832.63;;;6.42;100.00
5500;BME280;2772;42.700;23.304;2024-01-27T12:31:18;95827.38;;;6.53;100.00
5500;BME280;2772;42.700;23.304;2024-01-27T12:33:51;95830.00;;;6.78;100.00
5500;BME280;2772;42.700;23.304;2024-01-27T12:36:19;95834.81;;;7.01;100.00
5500;BME280;2772;42.700;23.304;2024-01-27T12:38:53;95837.69;;;6.79;100.00
5500;BME280;2772;42.700;23.304;2024-01-27T12:41:20;95833.22;;;6.85;100.00
5500;BME280;2772;42.700;23.304;2024-01-27T12:43:46;95828.16;;;6.73;100.00
5500;BME280;2772;42.700;23.304;2024-01-27T12:46:13;95838.50;;;6.80;100.00
5500;BME280;2772;42.700;23.304;2024-01-27T12:48:40;95845.09;;;6.72;100.00
5500;BME280;2772;42.700;23.304;2024-01-27T12:51:07;95847.78;;;6.82;100.00
5500;BME280;2772;42.700;23.304;2024-01-27T12:53:34;95855.16;;;6.65;100.00
5500;BME280;2772;42.700;23.304;2024-01-27T12:56:03;95835.59;;;6.66;100.00
5500;BME280;2772;42.700;23.304;2024-01-27T12:58:30;95849.31;;;6.58;100.00
5500;BME280;2772;42.700;23.304;2024-01-27T13:00:56;95840.59;;;6.58;100.00
5500;BME280;2772;42.700;23.304;2024-01-27T13:03:23;95825.50;;;6.53;100.00
5500;BME280;2772;42.700;23.304;2024-01-27T13:05:50;95835.03;;;6.44;100.00
5500;BME280;2772;42.700;23.304;2024-01-27T13:08:17;95844.78;;;6.38;100.00
5500;BME280;2772;42.700;23.304;2024-01-27T13:10:43;95836.09;;;6.43;100.00
5500;BME280;2772;42.700;23.304;2024-01-27T13:13:11;95841.88;;;6.35;100.00
5500;BME280;2772;42.700;23.304;2024-01-27T13:15:38;95826.00;;;6.30;100.00